sensor_id;sensor_type;location;lat;lon;timestamp;temperature;humidity
18658;DHT22;9458;50.942;5.074;2024-02-26T00:01:45;7.70;99.90
18658;DHT22;9458;50.942;5.074;2024-02-26T00:04:11;7.60;99.90
18658;DHT22;9458;50.942;5.074;2024-02-26T00:06:38;7.60;99.90
18658;DHT22;9458;50.942;5.074;2024-02-26T00:09:06;7.50;99.90
18658;DHT22;9458;50.942;5.074;2024-02-26T00:11:33;7.50;99.90
18658;DHT22;9458;50.942;5.074;2024-02-26T00:14:00;7.50;99.90
18658;DHT22;9458;50.942;5.074;2024-02-26T00:16:28;7.50;99.90
18658;DHT22;9458;50.942;5.074;2024-02-26T00:18:55;7.50;99.90
18658;DHT22;9458;50.942;5.074;2024-02-26T00:21:22;7.50;99.90
18658;DHT22;9458;50.942;5.074;2024-02-26T00:23:49;7.40;99.90
18658;DHT22;9458;50.942;5.074;2024-02-26T00:26:15;7.40;99.90
18658;DHT22;9458;50.942;5.074;2024-02-26T00:28:42;7.40;99.90
18658;DHT22;9458;50.942;5.074;2024-02-26T00:31:09;7.40;99.90
18658;DHT22;9458;50.942;5.074;2024-02-26T00:33:38;7.40;99.90
18658;DHT22;9458;50.942;5.074;2024-02-26T00:36:29;7.40;99.90
18658;DHT22;9458;50.942;5.074;2024-02-26T00:38:56;7.30;99.90
18658;DHT22;9458;50.942;5.074;2024-02-26T00:41:23;7.30;99.90
18658;DHT22;9458;50.942;5.074;2024-02-26T00:43:50;7.30;99.90
18658;DHT22;9458;50.942;5.074;2024-02-26T00:46:16;7.30;99.90
18658;DHT22;9458;50.942;5.074;2024-02-26T00:48:45;7.30;99.90
18658;DHT22;9458;50.942;5.074;2024-02-26T00:51:12;7.20;99.90
18658;DHT22;9458;50.942;5.074;2024-02-26T00:53:39;7.20;99.90
18658;DHT22;9458;50.942;5.074;2024-02-26T00:56:05;7.20;99.90
18658;DHT22;9458;50.942;5.074;2024-02-26T00:58:33;7.20;99.90
18658;DHT22;9458;50.942;5.074;2024-02-26T01:00:59;7.10;99.90
18658;DHT22;9458;50.942;5.074;2024-02-26T01:03:26;7.10;99.90
18658;DHT22;9458;50.942;5.074;2024-02-26T01:05:54;7.10;99.90
18658;DHT22;9458;50.942;5.074;2024-02-26T01:08:21;7.10;99.90
18658;DHT22;9458;50.942;5.074;2024-02-26T01:10:48;7.00;99.90
18658;DHT22;9458;50.942;5.074;2024-02-26T01:13:14;7.00;99.90
18658;DHT22;9458;50.942;5.074;2024-02-26T01:15:41;7.00;99.90
18658;DHT22;9458;50.942;5.074;2024-02-26T01:18:09;7.00;99.90
18658;DHT22;9458;50.942;5.074;2024-02-26T01:20:36;7.00;99.90
18658;DHT22;9458;50.942;5.074;2024-02-26T01:23:04;6.90;99.90
18658;DHT22;9458;50.942;5.074;2024-02-26T01:25:31;6.90;99.90
18658;DHT22;9458;50.942;5.074;2024-02-26T01:27:58;6.90;99.90
18658;DHT22;9458;50.942;5.074;2024-02-26T01:30:25;7.00;99.90
18658;DHT22;9458;50.942;5.074;2024-02-26T01:32:51;7.00;99.90
18658;DHT22;9458;50.942;5.074;2024-02-26T01:35:18;6.90;99.90
18658;DHT22;9458;50.942;5.074;2024-02-26T01:37:45;6.90;99.90
18658;DHT22;9458;50.942;5.074;2024-02-26T01:40:14;6.80;99.90
18658;DHT22;9458;50.942;5.074;2024-02-26T01:42:45;6.90;99.90
18658;DHT22;9458;50.942;5.074;2024-02-26T01:45:12;6.80;99.90
18658;DHT22;9458;50.942;5.074;2024-02-26T01:47:41;6.80;99.90
18658;DHT22;9458;50.942;5.074;2024-02-26T01:50:08;6.80;99.90
18658;DHT22;9458;50.942;5.074;2024-02-26T01:52:35;6.80;99.90
18658;DHT22;9458;50.942;5.074;2024-02-26T01:55:02;6.80;99.90
18658;DHT22;9458;50.942;5.074;2024-02-26T01:57:30;6.80;99.90
18658;DHT22;9458;50.942;5.074;2024-02-26T01:59:57;6.80;99.90
18658;DHT22;9458;50.942;5.074;2024-02-26T02:02:24;6.70;99.90
18658;DHT22;9458;50.942;5.074;2024-02-26T02:04:51;6.70;99.90
18658;DHT22;9458;50.942;5.074;2024-02-26T02:07:18;6.70;99.90
18658;DHT22;9458;50.942;5.074;2024-02-26T02:09:45;6.70;99.90
18658;DHT22;9458;50.942;5.074;2024-02-26T02:12:12;6.80;99.90
18658;DHT22;9458;50.942;5.074;2024-02-26T02:14:40;6.70;99.90
18658;DHT22;9458;50.942;5.074;2024-02-26T02:17:07;6.70;99.90
18658;DHT22;9458;50.942;5.074;2024-02-26T02:19:34;6.70;99.90
18658;DHT22;9458;50.942;5.074;2024-02-26T02:22:02;6.70;99.90
18658;DHT22;9458;50.942;5.074;2024-02-26T02:24:29;6.70;99.90
18658;DHT22;9458;50.942;5.074;2024-02-26T02:26:55;6.70;99.90
18658;DHT22;9458;50.942;5.074;2024-02-26T02:29:22;6.70;99.90
18658;DHT22;9458;50.942;5.074;2024-02-26T02:31:49;6.60;99.90
18658;DHT22;9458;50.942;5.074;2024-02-26T02:34:16;6.60;99.90
18658;DHT22;9458;50.942;5.074;2024-02-26T02:36:49;6.70;99.90
18658;DHT22;9458;50.942;5.074;2024-02-26T02:39:17;6.60;99.90
18658;DHT22;9458;50.942;5.074;2024-02-26T02:41:44;6.60;99.90
18658;DHT22;9458;50.942;5.074;2024-02-26T02:44:11;6.60;99.90
18658;DHT22;9458;50.942;5.074;2024-02-26T02:46:38;6.70;99.90
18658;DHT22;9458;50.942;5.074;2024-02-26T02:49:07;6.60;99.90
18658;DHT22;9458;50.942;5.074;2024-02-26T02:51:34;6.60;99.90
18658;DHT22;9458;50.942;5.074;2024-02-26T02:54:01;6.60;99.90
18658;DHT22;9458;50.942;5.074;2024-02-26T02:56:29;6.60;99.90
18658;DHT22;9458;50.942;5.074;2024-02-26T02:58:56;6.60;99.90
18658;DHT22;9458;50.942;5.074;2024-02-26T03:01:22;6.50;99.90
18658;DHT22;9458;50.942;5.074;2024-02-26T03:03:49;6.60;99.90
18658;DHT22;9458;50.942;5.074;2024-02-26T03:06:16;6.60;99.90
18658;DHT22;9458;50.942;5.074;2024-02-26T03:08:43;6.60;99.90
18658;DHT22;9458;50.942;5.074;2024-02-26T03:11:22;6.60;99.90
18658;DHT22;9458;50.942;5.074;2024-02-26T03:13:50;6.60;99.90
18658;DHT22;9458;50.942;5.074;2024-02-26T03:16:23;6.60;99.90
18658;DHT22;9458;50.942;5.074;2024-02-26T03:18:50;6.20;99.90
18658;DHT22;9458;50.942;5.074;2024-02-26T03:21:17;6.50;99.90
18658;DHT22;9458;50.942;5.074;2024-02-26T03:23:43;6.50;99.90
18658;DHT22;9458;50.942;5.074;2024-02-26T03:26:11;6.50;99.90
18658;DHT22;9458;50.942;5.074;2024-02-26T03:28:40;6.60;99.90
18658;DHT22;9458;50.942;5.074;2024-02-26T03:31:08;6.50;99.90
18658;DHT22;9458;50.942;5.074;2024-02-26T03:33:36;6.60;99.90
18658;DHT22;9458;50.942;5.074;2024-02-26T03:36:03;6.50;99.90
18658;DHT22;9458;50.942;5.074;2024-02-26T03:38:30;6.60;99.90
18658;DHT22;9458;50.942;5.074;2024-02-26T03:40:56;6.60;99.90
18658;DHT22;9458;50.942;5.074;2024-02-26T03:43:23;6.60;99.90
18658;DHT22;9458;50.942;5.074;2024-02-26T03:45:50;6.60;99.90
18658;DHT22;9458;50.942;5.074;2024-02-26T03:48:18;6.60;99.90
18658;DHT22;9458;50.942;5.074;2024-02-26T03:50:45;6.60;99.90
18658;DHT22;9458;50.942;5.074;2024-02-26T03:53:11;6.60;99.90
18658;DHT22;9458;50.942;5.074;2024-02-26T03:55:39;6.60;99.90
18658;DHT22;9458;50.942;5.074;2024-02-26T03:58:07;6.50;99.90
18658;DHT22;9458;50.942;5.074;2024-02-26T04:00:34;6.50;99.90
18658;DHT22;9458;50.942;5.074;2024-02-26T04:03:00;6.50;99.90
18658;DHT22;9458;50.942;5.074;2024-02-26T04:05:28;6.60;99.90
18658;DHT22;9458;50.942;5.074;2024-02-26T04:07:55;6.60;99.90
18658;DHT22;9458;50.942;5.074;2024-02-26T04:10:22;6.60;99.90
18658;DHT22;9458;50.942;5.074;2024-02-26T04:12:49;6.50;99.90
18658;DHT22;9458;50.942;5.074;2024-02-26T04:15:15;6.50;99.90
18658;DHT22;9458;50.942;5.074;2024-02-26T04:17:42;6.50;99.90
18658;DHT22;9458;50.942;5.074;2024-02-26T04:20:12;6.40;99.90
18658;DHT22;9458;50.942;5.074;2024-02-26T04:22:41;6.40;99.90
18658;DHT22;9458;50.942;5.074;2024-02-26T04:25:08;6.50;99.90
18658;DHT22;9458;50.942;5.074;2024-02-26T04:27:35;6.40;99.90
18658;DHT22;9458;50.942;5.074;2024-02-26T04:30:02;6.50;99.90
18658;DHT22;9458;50.942;5.074;2024-02-26T04:32:29;6.40;99.90
18658;DHT22;9458;50.942;5.074;2024-02-26T04:34:56;6.40;99.90
18658;DHT22;9458;50.942;5.074;2024-02-26T04:37:22;6.40;99.90
18658;DHT22;9458;50.942;5.074;2024-02-26T04:39:51;6.40;99.90
18658;DHT22;9458;50.942;5.074;2024-02-26T04:42:17;6.40;99.90
18658;DHT22;9458;50.942;5.074;2024-02-26T04:44:44;6.40;99.90
18658;DHT22;9458;50.942;5.074;2024-02-26T04:47:11;6.40;99.90
18658;DHT22;9458;50.942;5.074;2024-02-26T04:49:38;6.40;99.90
18658;DHT22;9458;50.942;5.074;2024-02-26T04:52:05;6.40;99.90
18658;DHT22;9458;50.942;5.074;2024-02-26T04:54:32;6.40;99.90
18658;DHT22;9458;50.942;5.074;2024-02-26T04:57:00;6.40;99.90
18658;DHT22;9458;50.942;5.074;2024-02-26T04:59:26;6.40;99.90
18658;DHT22;9458;50.942;5.074;2024-02-26T05:01:53;6.40;99.90
18658;DHT22;9458;50.942;5.074;2024-02-26T05:04:20;6.40;99.90
18658;DHT22;9458;50.942;5.074;2024-02-26T05:06:47;6.40;99.90
18658;DHT22;9458;50.942;5.074;2024-02-26T05:09:14;6.40;99.90
18658;DHT22;9458;50.942;5.074;2024-02-26T05:11:40;6.40;99.90
18658;DHT22;9458;50.942;5.074;2024-02-26T05:14:09;6.40;99.90
18658;DHT22;9458;50.942;5.074;2024-02-26T05:16:36;6.50;99.90
18658;DHT22;9458;50.942;5.074;2024-02-26T05:19:02;6.50;99.90
18658;DHT22;9458;50.942;5.074;2024-02-26T05:21:31;6.50;99.90
18658;DHT22;9458;50.942;5.074;2024-02-26T05:23:59;6.50;99.90
18658;DHT22;9458;50.942;5.074;2024-02-26T05:26:26;6.50;99.90
18658;DHT22;9458;50.942;5.074;2024-02-26T05:28:53;6.50;99.90
18658;DHT22;9458;50.942;5.074;2024-02-26T05:31:26;6.50;99.90
18658;DHT22;9458;50.942;5.074;2024-02-26T05:33:54;6.40;99.90
18658;DHT22;9458;50.942;5.074;2024-02-26T05:36:21;6.50;99.90
18658;DHT22;9458;50.942;5.074;2024-02-26T05:38:48;6.50;99.90
18658;DHT22;9458;50.942;5.074;2024-02-26T05:41:15;6.50;99.90
18658;DHT22;9458;50.942;5.074;2024-02-26T05:43:45;6.40;99.90
18658;DHT22;9458;50.942;5.074;2024-02-26T05:46:12;6.40;99.90
18658;DHT22;9458;50.942;5.074;2024-02-26T05:48:40;6.40;99.90
18658;DHT22;9458;50.942;5.074;2024-02-26T05:51:07;6.40;99.90
18658;DHT22;9458;50.942;5.074;2024-02-26T05:53:34;6.40;99.90
18658;DHT22;9458;50.942;5.074;2024-02-26T05:56:00;6.30;99.90
18658;DHT22;9458;50.942;5.074;2024-02-26T05:58:27;6.30;99.90
18658;DHT22;9458;50.942;5.074;2024-02-26T06:00:54;6.30;99.90
18658;DHT22;9458;50.942;5.074;2024-02-26T06:03:21;6.30;99.90
18658;DHT22;9458;50.942;5.074;2024-02-26T06:05:49;6.30;99.90
18658;DHT22;9458;50.942;5.074;2024-02-26T06:08:16;6.30;99.90
18658;DHT22;9458;50.942;5.074;2024-02-26T06:10:42;6.30;99.90
18658;DHT22;9458;50.942;5.074;2024-02-26T06:13:09;6.20;99.90
18658;DHT22;9458;50.942;5.074;2024-02-26T06:15:36;6.30;99.90
18658;DHT22;9458;50.942;5.074;2024-02-26T06:18:03;6.30;99.90
18658;DHT22;9458;50.942;5.074;2024-02-26T06:20:29;6.30;99.90
18658;DHT22;9458;50.942;5.074;2024-02-26T06:22:57;6.30;99.90
18658;DHT22;9458;50.942;5.074;2024-02-26T06:25:24;6.20;99.90
18658;DHT22;9458;50.942;5.074;2024-02-26T06:27:51;6.20;99.90
18658;DHT22;9458;50.942;5.074;2024-02-26T06:30:18;6.30;99.90
18658;DHT22;9458;50.942;5.074;2024-02-26T06:32:45;6.30;99.90
18658;DHT22;9458;50.942;5.074;2024-02-26T06:35:11;6.20;99.90
18658;DHT22;9458;50.942;5.074;2024-02-26T06:37:38;6.20;99.90
18658;DHT22;9458;50.942;5.074;2024-02-26T06:40:07;6.20;99.90
18658;DHT22;9458;50.942;5.074;2024-02-26T06:42:35;6.20;99.90
18658;DHT22;9458;50.942;5.074;2024-02-26T06:45:02;6.20;99.90
18658;DHT22;9458;50.942;5.074;2024-02-26T06:47:29;6.10;99.90
18658;DHT22;9458;50.942;5.074;2024-02-26T06:49:56;6.10;99.90
18658;DHT22;9458;50.942;5.074;2024-02-26T06:52:23;6.10;99.90
18658;DHT22;9458;50.942;5.074;2024-02-26T06:54:51;6.10;99.90
18658;DHT22;9458;50.942;5.074;2024-02-26T06:57:19;6.20;99.90
18658;DHT22;9458;50.942;5.074;2024-02-26T06:59:46;6.20;99.90
18658;DHT22;9458;50.942;5.074;2024-02-26T07:02:13;6.10;99.90
18658;DHT22;9458;50.942;5.074;2024-02-26T07:04:40;6.10;99.90
18658;DHT22;9458;50.942;5.074;2024-02-26T07:07:07;6.10;99.90
18658;DHT22;9458;50.942;5.074;2024-02-26T07:09:34;6.00;99.90
18658;DHT22;9458;50.942;5.074;2024-02-26T07:12:01;5.90;99.90
18658;DHT22;9458;50.942;5.074;2024-02-26T07:14:29;6.00;99.90
18658;DHT22;9458;50.942;5.074;2024-02-26T07:16:56;6.00;99.90
18658;DHT22;9458;50.942;5.074;2024-02-26T07:19:23;6.10;99.90
18658;DHT22;9458;50.942;5.074;2024-02-26T07:21:50;6.00;99.90
18658;DHT22;9458;50.942;5.074;2024-02-26T07:24:17;6.10;99.90
18658;DHT22;9458;50.942;5.074;2024-02-26T07:26:44;6.10;99.90
18658;DHT22;9458;50.942;5.074;2024-02-26T07:29:10;6.10;99.90
18658;DHT22;9458;50.942;5.074;2024-02-26T07:31:38;6.10;99.90
18658;DHT22;9458;50.942;5.074;2024-02-26T07:34:05;6.00;99.90
18658;DHT22;9458;50.942;5.074;2024-02-26T07:36:32;6.10;99.90
18658;DHT22;9458;50.942;5.074;2024-02-26T07:38:59;6.10;99.90
18658;DHT22;9458;50.942;5.074;2024-02-26T07:41:26;6.10;99.90
18658;DHT22;9458;50.942;5.074;2024-02-26T07:43:53;6.20;99.90
18658;DHT22;9458;50.942;5.074;2024-02-26T07:46:20;6.10;99.90
18658;DHT22;9458;50.942;5.074;2024-02-26T07:48:48;6.10;99.90
18658;DHT22;9458;50.942;5.074;2024-02-26T07:51:15;6.20;99.90
18658;DHT22;9458;50.942;5.074;2024-02-26T07:53:42;6.20;99.90
18658;DHT22;9458;50.942;5.074;2024-02-26T07:56:09;6.20;99.90
18658;DHT22;9458;50.942;5.074;2024-02-26T07:58:36;6.20;99.90
18658;DHT22;9458;50.942;5.074;2024-02-26T08:01:03;6.20;99.90
18658;DHT22;9458;50.942;5.074;2024-02-26T08:03:29;6.20;99.90
18658;DHT22;9458;50.942;5.074;2024-02-26T08:05:57;6.20;99.90
18658;DHT22;9458;50.942;5.074;2024-02-26T08:08:24;6.20;99.90
18658;DHT22;9458;50.942;5.074;2024-02-26T08:10:51;6.20;99.90
18658;DHT22;9458;50.942;5.074;2024-02-26T08:13:18;6.20;99.90
18658;DHT22;9458;50.942;5.074;2024-02-26T08:15:44;6.20;99.90
18658;DHT22;9458;50.942;5.074;2024-02-26T08:18:11;6.20;99.90
18658;DHT22;9458;50.942;5.074;2024-02-26T08:20:38;6.20;99.90
18658;DHT22;9458;50.942;5.074;2024-02-26T08:23:07;6.20;99.90
18658;DHT22;9458;50.942;5.074;2024-02-26T08:25:33;6.20;99.90
18658;DHT22;9458;50.942;5.074;2024-02-26T08:28:00;6.20;99.90
18658;DHT22;9458;50.942;5.074;2024-02-26T08:30:27;6.20;99.90
18658;DHT22;9458;50.942;5.074;2024-02-26T08:32:54;6.20;99.90
18658;DHT22;9458;50.942;5.074;2024-02-26T08:35:21;6.20;99.90
18658;DHT22;9458;50.942;5.074;2024-02-26T08:37:49;6.20;99.90
18658;DHT22;9458;50.942;5.074;2024-02-26T08:40:17;6.10;99.90
18658;DHT22;9458;50.942;5.074;2024-02-26T08:42:45;6.10;99.90
18658;DHT22;9458;50.942;5.074;2024-02-26T08:45:12;6.10;99.90
18658;DHT22;9458;50.942;5.074;2024-02-26T08:47:39;6.10;99.90
18658;DHT22;9458;50.942;5.074;2024-02-26T08:50:06;6.10;99.90
18658;DHT22;9458;50.942;5.074;2024-02-26T08:52:35;6.10;99.90
18658;DHT22;9458;50.942;5.074;2024-02-26T08:55:02;6.10;99.90
18658;DHT22;9458;50.942;5.074;2024-02-26T08:57:30;6.10;99.90
18658;DHT22;9458;50.942;5.074;2024-02-26T08:59:59;6.10;99.90
18658;DHT22;9458;50.942;5.074;2024-02-26T09:02:25;6.10;99.90
18658;DHT22;9458;50.942;5.074;2024-02-26T09:04:52;6.00;99.90
18658;DHT22;9458;50.942;5.074;2024-02-26T09:07:20;6.10;99.90
18658;DHT22;9458;50.942;5.074;2024-02-26T09:09:47;6.10;99.90
18658;DHT22;9458;50.942;5.074;2024-02-26T09:12:14;6.10;99.90
18658;DHT22;9458;50.942;5.074;2024-02-26T09:14:42;6.10;99.90
18658;DHT22;9458;50.942;5.074;2024-02-26T09:17:09;6.10;99.90
18658;DHT22;9458;50.942;5.074;2024-02-26T09:19:36;6.10;99.90
18658;DHT22;9458;50.942;5.074;2024-02-26T09:22:03;6.10;99.90
18658;DHT22;9458;50.942;5.074;2024-02-26T09:24:30;6.20;99.90
18658;DHT22;9458;50.942;5.074;2024-02-26T09:26:56;6.10;99.90
18658;DHT22;9458;50.942;5.074;2024-02-26T09:29:23;6.10;99.90
18658;DHT22;9458;50.942;5.074;2024-02-26T09:31:53;6.10;99.90
18658;DHT22;9458;50.942;5.074;2024-02-26T09:34:20;6.10;99.90
18658;DHT22;9458;50.942;5.074;2024-02-26T09:36:47;6.10;99.90
18658;DHT22;9458;50.942;5.074;2024-02-26T09:39:14;6.20;99.90
18658;DHT22;9458;50.942;5.074;2024-02-26T09:41:45;6.10;99.90
18658;DHT22;9458;50.942;5.074;2024-02-26T09:44:12;6.20;99.90
18658;DHT22;9458;50.942;5.074;2024-02-26T09:46:42;6.10;99.90
18658;DHT22;9458;50.942;5.074;2024-02-26T09:49:10;6.20;99.90
18658;DHT22;9458;50.942;5.074;2024-02-26T09:51:37;6.20;99.90
18658;DHT22;9458;50.942;5.074;2024-02-26T09:54:05;6.20;99.90
18658;DHT22;9458;50.942;5.074;2024-02-26T09:56:33;6.20;99.90
18658;DHT22;9458;50.942;5.074;2024-02-26T09:59:01;6.20;99.90
18658;DHT22;9458;50.942;5.074;2024-02-26T10:01:29;6.20;99.90
18658;DHT22;9458;50.942;5.074;2024-02-26T10:03:58;6.20;99.90
18658;DHT22;9458;50.942;5.074;2024-02-26T10:06:27;6.20;99.90
18658;DHT22;9458;50.942;5.074;2024-02-26T10:08:54;6.30;99.90
18658;DHT22;9458;50.942;5.074;2024-02-26T10:11:21;6.20;99.90
18658;DHT22;9458;50.942;5.074;2024-02-26T10:13:48;6.20;99.90
18658;DHT22;9458;50.942;5.074;2024-02-26T10:16:15;6.20;99.90
18658;DHT22;9458;50.942;5.074;2024-02-26T10:18:45;6.20;99.90
18658;DHT22;9458;50.942;5.074;2024-02-26T10:21:13;6.20;99.90
18658;DHT22;9458;50.942;5.074;2024-02-26T10:23:43;6.20;99.90
18658;DHT22;9458;50.942;5.074;2024-02-26T10:26:10;6.30;99.90
18658;DHT22;9458;50.942;5.074;2024-02-26T10:28:37;6.30;99.90
18658;DHT22;9458;50.942;5.074;2024-02-26T10:31:04;6.40;99.90
18658;DHT22;9458;50.942;5.074;2024-02-26T10:33:31;6.30;99.90
18658;DHT22;9458;50.942;5.074;2024-02-26T10:35:59;6.20;99.90
18658;DHT22;9458;50.942;5.074;2024-02-26T10:38:26;6.20;99.90
18658;DHT22;9458;50.942;5.074;2024-02-26T10:40:54;6.20;99.90
18658;DHT22;9458;50.942;5.074;2024-02-26T10:43:21;6.30;99.90
18658;DHT22;9458;50.942;5.074;2024-02-26T10:45:48;6.20;99.90
18658;DHT22;9458;50.942;5.074;2024-02-26T10:48:14;6.30;99.90
18658;DHT22;9458;50.942;5.074;2024-02-26T10:50:42;6.40;99.90
18658;DHT22;9458;50.942;5.074;2024-02-26T10:53:11;6.30;99.90
18658;DHT22;9458;50.942;5.074;2024-02-26T10:55:40;6.30;99.90
18658;DHT22;9458;50.942;5.074;2024-02-26T10:58:08;6.20;99.90
18658;DHT22;9458;50.942;5.074;2024-02-26T11:00:36;6.20;99.90
18658;DHT22;9458;50.942;5.074;2024-02-26T11:03:04;6.20;99.90
18658;DHT22;9458;50.942;5.074;2024-02-26T11:05:33;6.20;99.90
18658;DHT22;9458;50.942;5.074;2024-02-26T11:08:00;6.20;99.90
18658;DHT22;9458;50.942;5.074;2024-02-26T11:10:27;6.20;99.90
18658;DHT22;9458;50.942;5.074;2024-02-26T11:12:56;6.20;99.90
18658;DHT22;9458;50.942;5.074;2024-02-26T11:15:27;6.20;99.90
18658;DHT22;9458;50.942;5.074;2024-02-26T11:17:55;6.10;99.90
18658;DHT22;9458;50.942;5.074;2024-02-26T11:20:22;6.20;99.90
18658;DHT22;9458;50.942;5.074;2024-02-26T11:22:49;6.30;99.90
18658;DHT22;9458;50.942;5.074;2024-02-26T11:25:16;6.20;99.90
18658;DHT22;9458;50.942;5.074;2024-02-26T11:27:44;6.20;99.90
18658;DHT22;9458;50.942;5.074;2024-02-26T11:30:13;6.20;99.90
18658;DHT22;9458;50.942;5.074;2024-02-26T11:32:42;6.10;99.90
18658;DHT22;9458;50.942;5.074;2024-02-26T11:35:10;6.10;99.90
18658;DHT22;9458;50.942;5.074;2024-02-26T11:37:40;6.10;99.90
18658;DHT22;9458;50.942;5.074;2024-02-26T11:40:10;6.20;99.90
18658;DHT22;9458;50.942;5.074;2024-02-26T11:42:42;6.20;99.90
18658;DHT22;9458;50.942;5.074;2024-02-26T11:47:56;6.20;99.90
18658;DHT22;9458;50.942;5.074;2024-02-26T11:53:24;6.30;99.90
18658;DHT22;9458;50.942;5.074;2024-02-26T11:58:42;6.20;99.90
18658;DHT22;9458;50.942;5.074;2024-02-26T12:03:51;6.20;99.90
18658;DHT22;9458;50.942;5.074;2024-02-26T12:06:20;6.30;99.90
18658;DHT22;9458;50.942;5.074;2024-02-26T12:08:47;6.30;99.90
18658;DHT22;9458;50.942;5.074;2024-02-26T12:11:15;6.30;99.90
18658;DHT22;9458;50.942;5.074;2024-02-26T12:13:45;6.20;99.90
18658;DHT22;9458;50.942;5.074;2024-02-26T12:16:21;6.30;99.90
18658;DHT22;9458;50.942;5.074;2024-02-26T12:19:02;6.20;99.90
18658;DHT22;9458;50.942;5.074;2024-02-26T12:21:30;6.30;99.90
18658;DHT22;9458;50.942;5.074;2024-02-26T12:24:06;6.30;99.90
18658;DHT22;9458;50.942;5.074;2024-02-26T12:26:33;6.30;99.90
18658;DHT22;9458;50.942;5.074;2024-02-26T12:29:00;6.40;99.90
18658;DHT22;9458;50.942;5.074;2024-02-26T12:31:27;6.30;99.90
18658;DHT22;9458;50.942;5.074;2024-02-26T12:33:54;6.40;99.90
18658;DHT22;9458;50.942;5.074;2024-02-26T12:36:23;6.30;99.90
18658;DHT22;9458;50.942;5.074;2024-02-26T12:38:50;6.30;99.90
18658;DHT22;9458;50.942;5.074;2024-02-26T12:41:17;6.40;99.90
18658;DHT22;9458;50.942;5.074;2024-02-26T12:43:44;6.40;99.90
18658;DHT22;9458;50.942;5.074;2024-02-26T12:46:11;6.40;99.90
18658;DHT22;9458;50.942;5.074;2024-02-26T12:48:41;6.50;99.90
18658;DHT22;9458;50.942;5.074;2024-02-26T12:51:09;6.40;99.90
18658;DHT22;9458;50.942;5.074;2024-02-26T12:53:38;6.50;99.90
18658;DHT22;9458;50.942;5.074;2024-02-26T12:56:05;6.40;99.90
18658;DHT22;9458;50.942;5.074;2024-02-26T12:58:33;6.50;99.90
18658;DHT22;9458;50.942;5.074;2024-02-26T13:01:00;6.50;99.90
18658;DHT22;9458;50.942;5.074;2024-02-26T13:03:27;6.50;99.90
18658;DHT22;9458;50.942;5.074;2024-02-26T13:05:54;6.40;99.90
18658;DHT22;9458;50.942;5.074;2024-02-26T13:08:21;6.40;99.90
18658;DHT22;9458;50.942;5.074;2024-02-26T13:10:51;6.40;99.90
18658;DHT22;9458;50.942;5.074;2024-02-26T13:13:18;6.50;99.90
18658;DHT22;9458;50.942;5.074;2024-02-26T13:15:45;6.40;99.90
18658;DHT22;9458;50.942;5.074;2024-02-26T13:18:13;6.40;99.90
18658;DHT22;9458;50.942;5.074;2024-02-26T13:20:40;6.40;99.90
18658;DHT22;9458;50.942;5.074;2024-02-26T13:23:07;6.50;99.90
18658;DHT22;9458;50.942;5.074;2024-02-26T13:25:34;6.50;99.90
18658;DHT22;9458;50.942;5.074;2024-02-26T13:28:07;6.50;99.90
18658;DHT22;9458;50.942;5.074;2024-02-26T13:30:34;6.40;99.90
18658;DHT22;9458;50.942;5.074;2024-02-26T13:33:07;6.50;99.90
18658;DHT22;9458;50.942;5.074;2024-02-26T13:35:34;6.50;99.90
18658;DHT22;9458;50.942;5.074;2024-02-26T13:38:01;6.40;99.90
18658;DHT22;9458;50.942;5.074;2024-02-26T13:40:29;6.40;99.90
18658;DHT22;9458;50.942;5.074;2024-02-26T13:42:55;6.40;99.90
18658;DHT22;9458;50.942;5.074;2024-02-26T13:45:22;6.40;99.90
18658;DHT22;9458;50.942;5.074;2024-02-26T13:47:49;6.50;99.90
18658;DHT22;9458;50.942;5.074;2024-02-26T13:50:16;6.50;99.90
18658;DHT22;9458;50.942;5.074;2024-02-26T13:52:46;6.50;99.90
18658;DHT22;9458;50.942;5.074;2024-02-26T13:55:18;6.50;99.90
18658;DHT22;9458;50.942;5.074;2024-02-26T13:57:46;6.50;99.90
18658;DHT22;9458;50.942;5.074;2024-02-26T14:00:13;6.50;99.90
18658;DHT22;9458;50.942;5.074;2024-02-26T14:02:42;6.50;99.90
18658;DHT22;9458;50.942;5.074;2024-02-26T14:05:09;6.40;99.90
18658;DHT22;9458;50.942;5.074;2024-02-26T14:07:35;6.50;99.90
18658;DHT22;9458;50.942;5.074;2024-02-26T14:10:02;6.50;99.90
18658;DHT22;9458;50.942;5.074;2024-02-26T14:12:29;6.60;99.90
18658;DHT22;9458;50.942;5.074;2024-02-26T14:14:56;6.60;99.90
18658;DHT22;9458;50.942;5.074;2024-02-26T14:17:25;6.60;99.90
18658;DHT22;9458;50.942;5.074;2024-02-26T14:19:54;6.60;99.90
18658;DHT22;9458;50.942;5.074;2024-02-26T14:22:20;6.60;99.90
18658;DHT22;9458;50.942;5.074;2024-02-26T14:24:47;6.60;99.90
18658;DHT22;9458;50.942;5.074;2024-02-26T14:27:14;6.60;99.90
18658;DHT22;9458;50.942;5.074;2024-02-26T14:29:42;6.50;99.90
18658;DHT22;9458;50.942;5.074;2024-02-26T14:32:09;6.50;99.90
18658;DHT22;9458;50.942;5.074;2024-02-26T14:34:36;6.50;99.90
18658;DHT22;9458;50.942;5.074;2024-02-26T14:37:04;6.60;99.90
18658;DHT22;9458;50.942;5.074;2024-02-26T14:39:31;6.50;99.90
18658;DHT22;9458;50.942;5.074;2024-02-26T14:41:58;6.50;99.90
18658;DHT22;9458;50.942;5.074;2024-02-26T14:44:25;6.50;99.90
18658;DHT22;9458;50.942;5.074;2024-02-26T14:46:52;6.50;99.90
18658;DHT22;9458;50.942;5.074;2024-02-26T14:49:19;6.50;99.90
18658;DHT22;9458;50.942;5.074;2024-02-26T14:51:45;6.40;99.90
18658;DHT22;9458;50.942;5.074;2024-02-26T14:54:14;6.50;99.90
18658;DHT22;9458;50.942;5.074;2024-02-26T14:56:41;6.60;99.90
18658;DHT22;9458;50.942;5.074;2024-02-26T14:59:07;6.50;99.90
18658;DHT22;9458;50.942;5.074;2024-02-26T15:01:34;6.60;99.90
18658;DHT22;9458;50.942;5.074;2024-02-26T15:04:01;6.60;99.90
18658;DHT22;9458;50.942;5.074;2024-02-26T15:06:29;6.60;99.90
18658;DHT22;9458;50.942;5.074;2024-02-26T15:08:55;6.60;99.90
18658;DHT22;9458;50.942;5.074;2024-02-26T15:11:24;6.60;99.90
18658;DHT22;9458;50.942;5.074;2024-02-26T15:13:50;6.60;99.90
18658;DHT22;9458;50.942;5.074;2024-02-26T15:16:17;6.60;99.90
18658;DHT22;9458;50.942;5.074;2024-02-26T15:18:45;6.50;99.90
18658;DHT22;9458;50.942;5.074;2024-02-26T15:21:12;6.50;99.90
18658;DHT22;9458;50.942;5.074;2024-02-26T15:23:42;6.50;99.90
18658;DHT22;9458;50.942;5.074;2024-02-26T15:26:09;6.60;99.90
18658;DHT22;9458;50.942;5.074;2024-02-26T15:28:37;6.60;99.90
18658;DHT22;9458;50.942;5.074;2024-02-26T15:31:04;6.60;99.90
18658;DHT22;9458;50.942;5.074;2024-02-26T15:33:31;6.60;99.90
18658;DHT22;9458;50.942;5.074;2024-02-26T15:35:58;6.60;99.90
18658;DHT22;9458;50.942;5.074;2024-02-26T15:38:24;6.60;99.90
18658;DHT22;9458;50.942;5.074;2024-02-26T15:40:52;6.60;99.90
18658;DHT22;9458;50.942;5.074;2024-02-26T15:43:19;6.60;99.90
18658;DHT22;9458;50.942;5.074;2024-02-26T15:45:48;6.60;99.90
18658;DHT22;9458;50.942;5.074;2024-02-26T15:48:15;6.60;99.90
18658;DHT22;9458;50.942;5.074;2024-02-26T15:50:42;6.60;99.90
18658;DHT22;9458;50.942;5.074;2024-02-26T15:53:09;6.50;99.90
18658;DHT22;9458;50.942;5.074;2024-02-26T15:55:36;6.60;99.90
18658;DHT22;9458;50.942;5.074;2024-02-26T15:58:03;6.60;99.90
18658;DHT22;9458;50.942;5.074;2024-02-26T16:00:30;6.60;99.90
18658;DHT22;9458;50.942;5.074;2024-02-26T16:02:58;6.60;99.90
18658;DHT22;9458;50.942;5.074;2024-02-26T16:05:25;6.60;99.90
18658;DHT22;9458;50.942;5.074;2024-02-26T16:07:52;6.60;99.90
18658;DHT22;9458;50.942;5.074;2024-02-26T16:10:21;6.60;99.90
18658;DHT22;9458;50.942;5.074;2024-02-26T16:12:49;6.60;99.90
18658;DHT22;9458;50.942;5.074;2024-02-26T16:15:17;6.60;99.90